sensor_id;sensor_type;location;lat;lon;timestamp;temperature;humidity
33815;DHT22;20121;51.910;8.406;2023-08-24T00:01:15;17.90;99.90
33815;DHT22;20121;51.910;8.406;2023-08-24T00:03:44;17.90;99.90
33815;DHT22;20121;51.910;8.406;2023-08-24T00:06:13;17.80;99.90
33815;DHT22;20121;51.910;8.406;2023-08-24T00:08:40;17.80;99.90
33815;DHT22;20121;51.910;8.406;2023-08-24T00:11:05;17.80;99.90
33815;DHT22;20121;51.910;8.406;2023-08-24T00:13:31;17.70;99.90
33815;DHT22;20121;51.910;8.406;2023-08-24T00:15:57;17.70;99.90
33815;DHT22;20121;51.910;8.406;2023-08-24T00:18:23;17.80;99.90
33815;DHT22;20121;51.910;8.406;2023-08-24T00:20:49;17.70;99.90
33815;DHT22;20121;51.910;8.406;2023-08-24T00:23:15;17.70;99.90
33815;DHT22;20121;51.910;8.406;2023-08-24T00:25:41;17.70;99.90
33815;DHT22;20121;51.910;8.406;2023-08-24T00:28:07;18.10;99.90
33815;DHT22;20121;51.910;8.406;2023-08-24T00:30:32;17.60;99.90
33815;DHT22;20121;51.910;8.406;2023-08-24T00:32:58;17.60;99.90
33815;DHT22;20121;51.910;8.406;2023-08-24T00:35:24;17.60;99.90
33815;DHT22;20121;51.910;8.406;2023-08-24T00:37:50;17.70;99.90
33815;DHT22;20121;51.910;8.406;2023-08-24T00:40:19;17.60;99.90
33815;DHT22;20121;51.910;8.406;2023-08-24T00:42:45;17.60;99.90
33815;DHT22;20121;51.910;8.406;2023-08-24T00:45:13;17.50;99.90
33815;DHT22;20121;51.910;8.406;2023-08-24T00:47:41;17.50;99.90
33815;DHT22;20121;51.910;8.406;2023-08-24T00:50:08;17.50;99.90
33815;DHT22;20121;51.910;8.406;2023-08-24T00:52:37;17.70;99.90
33815;DHT22;20121;51.910;8.406;2023-08-24T00:55:05;17.50;99.90
33815;DHT22;20121;51.910;8.406;2023-08-24T00:57:32;17.50;99.90
33815;DHT22;20121;51.910;8.406;2023-08-24T00:59:59;17.50;99.90
33815;DHT22;20121;51.910;8.406;2023-08-24T01:02:25;17.70;99.90
33815;DHT22;20121;51.910;8.406;2023-08-24T01:04:51;17.40;99.90
33815;DHT22;20121;51.910;8.406;2023-08-24T01:07:17;17.40;99.90
33815;DHT22;20121;51.910;8.406;2023-08-24T01:09:44;17.40;99.90
33815;DHT22;20121;51.910;8.406;2023-08-24T01:15:29;17.40;99.90
33815;DHT22;20121;51.910;8.406;2023-08-24T01:18:01;17.40;99.90
33815;DHT22;20121;51.910;8.406;2023-08-24T01:20:30;17.30;99.90
33815;DHT22;20121;51.910;8.406;2023-08-24T01:23:03;17.30;99.90
33815;DHT22;20121;51.910;8.406;2023-08-24T01:25:51;17.30;99.90
33815;DHT22;20121;51.910;8.406;2023-08-24T01:28:17;17.30;99.90
33815;DHT22;20121;51.910;8.406;2023-08-24T01:30:44;17.20;99.90
33815;DHT22;20121;51.910;8.406;2023-08-24T01:33:10;17.20;99.90
33815;DHT22;20121;51.910;8.406;2023-08-24T01:35:38;17.20;99.90
33815;DHT22;20121;51.910;8.406;2023-08-24T01:38:04;17.20;99.90
33815;DHT22;20121;51.910;8.406;2023-08-24T01:43:24;17.10;99.90
33815;DHT22;20121;51.910;8.406;2023-08-24T01:45:52;17.10;99.90
33815;DHT22;20121;51.910;8.406;2023-08-24T01:48:19;17.10;99.90
33815;DHT22;20121;51.910;8.406;2023-08-24T01:50:46;17.00;99.90
33815;DHT22;20121;51.910;8.406;2023-08-24T01:53:12;17.00;99.90
33815;DHT22;20121;51.910;8.406;2023-08-24T01:55:38;17.00;99.90
33815;DHT22;20121;51.910;8.406;2023-08-24T01:58:03;17.00;99.90
33815;DHT22;20121;51.910;8.406;2023-08-24T02:00:29;16.90;99.90
33815;DHT22;20121;51.910;8.406;2023-08-24T02:02:55;16.90;99.90
33815;DHT22;20121;51.910;8.406;2023-08-24T02:05:20;16.90;99.90
33815;DHT22;20121;51.910;8.406;2023-08-24T02:07:46;16.90;99.90
33815;DHT22;20121;51.910;8.406;2023-08-24T02:10:12;16.90;99.90
33815;DHT22;20121;51.910;8.406;2023-08-24T02:12:37;16.80;99.90
33815;DHT22;20121;51.910;8.406;2023-08-24T02:15:03;16.80;99.90
33815;DHT22;20121;51.910;8.406;2023-08-24T02:17:29;16.80;99.90
33815;DHT22;20121;51.910;8.406;2023-08-24T02:19:55;16.80;99.90
33815;DHT22;20121;51.910;8.406;2023-08-24T02:22:20;16.50;99.90
33815;DHT22;20121;51.910;8.406;2023-08-24T02:24:46;16.70;99.90
33815;DHT22;20121;51.910;8.406;2023-08-24T02:27:12;16.70;99.90
33815;DHT22;20121;51.910;8.406;2023-08-24T02:29:37;16.70;99.90
33815;DHT22;20121;51.910;8.406;2023-08-24T02:32:04;16.70;99.90
33815;DHT22;20121;51.910;8.406;2023-08-24T02:34:30;16.60;99.90
33815;DHT22;20121;51.910;8.406;2023-08-24T02:36:57;16.60;99.90
33815;DHT22;20121;51.910;8.406;2023-08-24T02:39:22;16.60;99.90
33815;DHT22;20121;51.910;8.406;2023-08-24T02:41:49;16.60;99.90
33815;DHT22;20121;51.910;8.406;2023-08-24T02:44:14;16.60;99.90
33815;DHT22;20121;51.910;8.406;2023-08-24T02:46:40;16.50;99.90
33815;DHT22;20121;51.910;8.406;2023-08-24T02:49:05;16.50;99.90
33815;DHT22;20121;51.910;8.406;2023-08-24T02:51:31;16.50;99.90
33815;DHT22;20121;51.910;8.406;2023-08-24T02:53:57;16.50;99.90
33815;DHT22;20121;51.910;8.406;2023-08-24T02:56:23;16.40;99.90
33815;DHT22;20121;51.910;8.406;2023-08-24T02:58:48;16.40;99.90
33815;DHT22;20121;51.910;8.406;2023-08-24T03:01:14;16.40;99.90
33815;DHT22;20121;51.910;8.406;2023-08-24T03:03:40;16.40;99.90
33815;DHT22;20121;51.910;8.406;2023-08-24T03:06:06;16.40;99.90
33815;DHT22;20121;51.910;8.406;2023-08-24T03:08:33;16.40;99.90
33815;DHT22;20121;51.910;8.406;2023-08-24T03:11:00;16.40;99.90
33815;DHT22;20121;51.910;8.406;2023-08-24T03:13:26;16.40;99.90
33815;DHT22;20121;51.910;8.406;2023-08-24T03:15:52;16.40;99.90
33815;DHT22;20121;51.910;8.406;2023-08-24T03:18:18;16.30;99.90
33815;DHT22;20121;51.910;8.406;2023-08-24T03:20:45;16.30;99.90
33815;DHT22;20121;51.910;8.406;2023-08-24T03:23:11;16.30;99.90
33815;DHT22;20121;51.910;8.406;2023-08-24T03:25:39;16.20;99.90
33815;DHT22;20121;51.910;8.406;2023-08-24T03:28:06;16.30;99.90
33815;DHT22;20121;51.910;8.406;2023-08-24T03:30:39;16.30;99.90
33815;DHT22;20121;51.910;8.406;2023-08-24T03:33:05;16.20;99.90
33815;DHT22;20121;51.910;8.406;2023-08-24T03:35:32;16.20;99.90
33815;DHT22;20121;51.910;8.406;2023-08-24T03:37:58;16.20;99.90
33815;DHT22;20121;51.910;8.406;2023-08-24T03:40:24;16.40;99.90
33815;DHT22;20121;51.910;8.406;2023-08-24T03:42:50;16.20;99.90
33815;DHT22;20121;51.910;8.406;2023-08-24T03:45:16;16.20;99.90
33815;DHT22;20121;51.910;8.406;2023-08-24T03:47:41;16.20;99.90
33815;DHT22;20121;51.910;8.406;2023-08-24T03:50:07;16.20;99.90
33815;DHT22;20121;51.910;8.406;2023-08-24T03:52:33;16.20;99.90
33815;DHT22;20121;51.910;8.406;2023-08-24T03:54:59;16.10;99.90
33815;DHT22;20121;51.910;8.406;2023-08-24T03:57:24;16.20;99.90
33815;DHT22;20121;51.910;8.406;2023-08-24T03:59:50;16.20;99.90
33815;DHT22;20121;51.910;8.406;2023-08-24T04:02:16;16.20;99.90
33815;DHT22;20121;51.910;8.406;2023-08-24T04:04:42;16.10;99.90
33815;DHT22;20121;51.910;8.406;2023-08-24T04:09:33;16.20;99.90
33815;DHT22;20121;51.910;8.406;2023-08-24T04:11:59;16.30;99.90
33815;DHT22;20121;51.910;8.406;2023-08-24T04:14:25;16.10;99.90
33815;DHT22;20121;51.910;8.406;2023-08-24T04:16:50;16.20;99.90
33815;DHT22;20121;51.910;8.406;2023-08-24T04:19:16;16.20;99.90
33815;DHT22;20121;51.910;8.406;2023-08-24T04:21:42;16.40;99.90
33815;DHT22;20121;51.910;8.406;2023-08-24T04:24:07;16.20;99.90
33815;DHT22;20121;51.910;8.406;2023-08-24T04:26:33;16.20;99.90
33815;DHT22;20121;51.910;8.406;2023-08-24T04:28:59;16.30;99.90
33815;DHT22;20121;51.910;8.406;2023-08-24T04:31:24;16.10;99.90
33815;DHT22;20121;51.910;8.406;2023-08-24T04:33:50;16.30;99.90
33815;DHT22;20121;51.910;8.406;2023-08-24T04:36:15;16.30;99.90
33815;DHT22;20121;51.910;8.406;2023-08-24T04:38:41;16.30;99.90
33815;DHT22;20121;51.910;8.406;2023-08-24T04:41:08;16.30;99.90
33815;DHT22;20121;51.910;8.406;2023-08-24T04:43:34;16.30;99.90
33815;DHT22;20121;51.910;8.406;2023-08-24T04:46:02;16.40;99.90
33815;DHT22;20121;51.910;8.406;2023-08-24T04:48:27;16.40;99.90
33815;DHT22;20121;51.910;8.406;2023-08-24T04:50:58;16.40;99.90
33815;DHT22;20121;51.910;8.406;2023-08-24T04:53:23;16.40;99.90
33815;DHT22;20121;51.910;8.406;2023-08-24T04:55:49;15.40;99.90
33815;DHT22;20121;51.910;8.406;2023-08-24T04:58:16;16.50;99.90
33815;DHT22;20121;51.910;8.406;2023-08-24T05:00:42;16.40;99.90
33815;DHT22;20121;51.910;8.406;2023-08-24T05:03:08;16.40;99.90
33815;DHT22;20121;51.910;8.406;2023-08-24T05:05:35;16.60;99.90
33815;DHT22;20121;51.910;8.406;2023-08-24T05:08:02;16.40;99.90
33815;DHT22;20121;51.910;8.406;2023-08-24T05:10:31;16.50;99.90
33815;DHT22;20121;51.910;8.406;2023-08-24T05:12:57;16.50;99.90
33815;DHT22;20121;51.910;8.406;2023-08-24T05:15:23;16.50;99.90
33815;DHT22;20121;51.910;8.406;2023-08-24T05:17:48;16.50;99.90
33815;DHT22;20121;51.910;8.406;2023-08-24T05:20:14;16.40;99.90
33815;DHT22;20121;51.910;8.406;2023-08-24T05:22:40;16.40;99.90
33815;DHT22;20121;51.910;8.406;2023-08-24T05:25:06;16.40;99.90
33815;DHT22;20121;51.910;8.406;2023-08-24T05:27:31;16.40;99.90
33815;DHT22;20121;51.910;8.406;2023-08-24T05:29:57;16.40;99.90
33815;DHT22;20121;51.910;8.406;2023-08-24T05:32:23;16.70;99.90
33815;DHT22;20121;51.910;8.406;2023-08-24T05:34:49;16.50;99.90
33815;DHT22;20121;51.910;8.406;2023-08-24T05:37:15;16.50;99.90
33815;DHT22;20121;51.910;8.406;2023-08-24T05:39:40;16.50;99.90
33815;DHT22;20121;51.910;8.406;2023-08-24T05:42:06;16.50;99.90
33815;DHT22;20121;51.910;8.406;2023-08-24T05:44:32;16.50;99.90
33815;DHT22;20121;51.910;8.406;2023-08-24T05:46:57;16.50;99.90
33815;DHT22;20121;51.910;8.406;2023-08-24T05:49:23;16.50;99.90
33815;DHT22;20121;51.910;8.406;2023-08-24T05:51:52;16.50;99.90
33815;DHT22;20121;51.910;8.406;2023-08-24T05:54:18;16.50;99.90
33815;DHT22;20121;51.910;8.406;2023-08-24T05:56:47;16.50;99.90
33815;DHT22;20121;51.910;8.406;2023-08-24T05:59:14;16.50;99.90
33815;DHT22;20121;51.910;8.406;2023-08-24T06:01:40;16.50;99.90
33815;DHT22;20121;51.910;8.406;2023-08-24T06:04:09;16.50;99.90
33815;DHT22;20121;51.910;8.406;2023-08-24T06:06:35;16.40;99.90
33815;DHT22;20121;51.910;8.406;2023-08-24T06:09:01;16.60;99.90
33815;DHT22;20121;51.910;8.406;2023-08-24T06:11:30;16.50;99.90
33815;DHT22;20121;51.910;8.406;2023-08-24T06:13:55;16.70;99.90
33815;DHT22;20121;51.910;8.406;2023-08-24T06:16:21;16.60;99.90
33815;DHT22;20121;51.910;8.406;2023-08-24T06:18:46;16.60;99.90
33815;DHT22;20121;51.910;8.406;2023-08-24T06:21:12;16.70;99.90
33815;DHT22;20121;51.910;8.406;2023-08-24T06:23:38;16.70;99.90
33815;DHT22;20121;51.910;8.406;2023-08-24T06:26:04;16.70;99.90
33815;DHT22;20121;51.910;8.406;2023-08-24T06:28:30;16.70;99.90
33815;DHT22;20121;51.910;8.406;2023-08-24T06:30:56;16.70;99.90
33815;DHT22;20121;51.910;8.406;2023-08-24T06:33:27;16.90;99.90
33815;DHT22;20121;51.910;8.406;2023-08-24T06:35:53;16.80;99.90
33815;DHT22;20121;51.910;8.406;2023-08-24T06:38:19;16.70;99.90
33815;DHT22;20121;51.910;8.406;2023-08-24T06:40:45;16.60;99.90
33815;DHT22;20121;51.910;8.406;2023-08-24T06:43:10;17.10;99.90
33815;DHT22;20121;51.910;8.406;2023-08-24T06:45:36;16.90;99.90
33815;DHT22;20121;51.910;8.406;2023-08-24T06:48:02;16.90;99.90
33815;DHT22;20121;51.910;8.406;2023-08-24T06:50:28;16.90;99.90
33815;DHT22;20121;51.910;8.406;2023-08-24T06:52:54;16.90;99.90
33815;DHT22;20121;51.910;8.406;2023-08-24T06:55:19;16.90;99.90
33815;DHT22;20121;51.910;8.406;2023-08-24T06:57:48;17.00;99.90
33815;DHT22;20121;51.910;8.406;2023-08-24T07:00:17;17.00;99.90
33815;DHT22;20121;51.910;8.406;2023-08-24T07:02:42;17.00;99.90
33815;DHT22;20121;51.910;8.406;2023-08-24T07:05:08;17.00;99.90
33815;DHT22;20121;51.910;8.406;2023-08-24T07:07:35;17.10;99.90
33815;DHT22;20121;51.910;8.406;2023-08-24T07:10:00;17.10;99.90
33815;DHT22;20121;51.910;8.406;2023-08-24T07:12:26;17.10;99.90
33815;DHT22;20121;51.910;8.406;2023-08-24T07:14:52;17.20;99.90
33815;DHT22;20121;51.910;8.406;2023-08-24T07:17:17;17.30;99.90
33815;DHT22;20121;51.910;8.406;2023-08-24T07:19:43;17.30;99.90
33815;DHT22;20121;51.910;8.406;2023-08-24T07:22:09;17.40;99.90
33815;DHT22;20121;51.910;8.406;2023-08-24T07:24:34;17.50;99.90
33815;DHT22;20121;51.910;8.406;2023-08-24T07:27:02;17.60;99.90
33815;DHT22;20121;51.910;8.406;2023-08-24T07:29:30;17.70;99.90
33815;DHT22;20121;51.910;8.406;2023-08-24T07:31:57;17.90;99.90
33815;DHT22;20121;51.910;8.406;2023-08-24T07:34:22;18.00;99.90
33815;DHT22;20121;51.910;8.406;2023-08-24T07:36:49;18.10;99.90
33815;DHT22;20121;51.910;8.406;2023-08-24T07:39:15;18.30;99.90
33815;DHT22;20121;51.910;8.406;2023-08-24T07:41:41;18.70;99.90
33815;DHT22;20121;51.910;8.406;2023-08-24T07:44:07;18.50;99.90
33815;DHT22;20121;51.910;8.406;2023-08-24T07:46:33;18.60;99.90
33815;DHT22;20121;51.910;8.406;2023-08-24T07:48:58;18.80;99.90
33815;DHT22;20121;51.910;8.406;2023-08-24T07:51:24;18.90;99.90
33815;DHT22;20121;51.910;8.406;2023-08-24T07:53:50;19.40;99.90
33815;DHT22;20121;51.910;8.406;2023-08-24T07:56:18;19.20;99.90
33815;DHT22;20121;51.910;8.406;2023-08-24T07:58:44;19.40;99.90
33815;DHT22;20121;51.910;8.406;2023-08-24T08:01:10;19.50;99.90
33815;DHT22;20121;51.910;8.406;2023-08-24T08:03:35;19.60;99.90
33815;DHT22;20121;51.910;8.406;2023-08-24T08:06:01;19.80;99.90
33815;DHT22;20121;51.910;8.406;2023-08-24T08:08:27;20.00;99.90
33815;DHT22;20121;51.910;8.406;2023-08-24T08:11:00;20.20;99.90
33815;DHT22;20121;51.910;8.406;2023-08-24T08:13:27;20.40;99.90
33815;DHT22;20121;51.910;8.406;2023-08-24T08:15:53;20.60;99.90
33815;DHT22;20121;51.910;8.406;2023-08-24T08:18:19;20.90;99.90
33815;DHT22;20121;51.910;8.406;2023-08-24T08:20:44;21.10;99.90
33815;DHT22;20121;51.910;8.406;2023-08-24T08:23:10;21.80;99.90
33815;DHT22;20121;51.910;8.406;2023-08-24T08:25:36;21.50;99.90
33815;DHT22;20121;51.910;8.406;2023-08-24T08:28:01;21.90;99.90
33815;DHT22;20121;51.910;8.406;2023-08-24T08:30:27;22.00;99.90
33815;DHT22;20121;51.910;8.406;2023-08-24T08:32:52;22.20;99.90
33815;DHT22;20121;51.910;8.406;2023-08-24T08:35:21;22.40;99.90
33815;DHT22;20121;51.910;8.406;2023-08-24T08:37:47;22.60;99.90
33815;DHT22;20121;51.910;8.406;2023-08-24T08:40:15;22.80;99.90
33815;DHT22;20121;51.910;8.406;2023-08-24T08:42:41;23.00;99.90
33815;DHT22;20121;51.910;8.406;2023-08-24T08:45:10;23.20;99.90
33815;DHT22;20121;51.910;8.406;2023-08-24T08:47:36;23.30;99.90
33815;DHT22;20121;51.910;8.406;2023-08-24T08:50:03;23.50;99.90
33815;DHT22;20121;51.910;8.406;2023-08-24T08:52:29;23.70;99.90
33815;DHT22;20121;51.910;8.406;2023-08-24T08:54:55;24.00;99.90
33815;DHT22;20121;51.910;8.406;2023-08-24T08:57:23;24.10;99.90
33815;DHT22;20121;51.910;8.406;2023-08-24T08:59:51;24.30;99.90
33815;DHT22;20121;51.910;8.406;2023-08-24T09:02:19;24.50;99.90
33815;DHT22;20121;51.910;8.406;2023-08-24T09:04:45;24.60;99.90
33815;DHT22;20121;51.910;8.406;2023-08-24T09:07:15;24.80;99.90
33815;DHT22;20121;51.910;8.406;2023-08-24T09:09:41;25.00;99.90
33815;DHT22;20121;51.910;8.406;2023-08-24T09:12:07;24.90;99.90
33815;DHT22;20121;51.910;8.406;2023-08-24T09:14:34;25.00;99.90
33815;DHT22;20121;51.910;8.406;2023-08-24T09:16:59;25.00;99.90
33815;DHT22;20121;51.910;8.406;2023-08-24T09:19:29;25.10;99.90
33815;DHT22;20121;51.910;8.406;2023-08-24T09:21:59;25.20;99.90
33815;DHT22;20121;51.910;8.406;2023-08-24T09:24:32;25.30;99.90
33815;DHT22;20121;51.910;8.406;2023-08-24T09:26:58;25.30;99.90
33815;DHT22;20121;51.910;8.406;2023-08-24T09:29:24;25.40;99.90
33815;DHT22;20121;51.910;8.406;2023-08-24T09:31:51;25.50;99.90
33815;DHT22;20121;51.910;8.406;2023-08-24T09:34:20;25.60;99.90
33815;DHT22;20121;51.910;8.406;2023-08-24T09:36:51;25.70;99.90
33815;DHT22;20121;51.910;8.406;2023-08-24T09:39:17;25.80;99.90
33815;DHT22;20121;51.910;8.406;2023-08-24T09:41:49;25.90;99.90
33815;DHT22;20121;51.910;8.406;2023-08-24T09:44:16;26.00;99.90
33815;DHT22;20121;51.910;8.406;2023-08-24T09:46:42;26.00;99.90
33815;DHT22;20121;51.910;8.406;2023-08-24T09:49:10;26.10;99.90
33815;DHT22;20121;51.910;8.406;2023-08-24T09:51:37;26.10;99.90
33815;DHT22;20121;51.910;8.406;2023-08-24T09:54:08;26.20;99.90
33815;DHT22;20121;51.910;8.406;2023-08-24T09:56:35;26.40;99.90
33815;DHT22;20121;51.910;8.406;2023-08-24T10:01:33;26.70;99.90
33815;DHT22;20121;51.910;8.406;2023-08-24T10:04:01;26.80;99.90
33815;DHT22;20121;51.910;8.406;2023-08-24T10:06:29;26.90;99.90
33815;DHT22;20121;51.910;8.406;2023-08-24T10:08:58;27.00;99.90
33815;DHT22;20121;51.910;8.406;2023-08-24T10:11:28;27.00;99.90
33815;DHT22;20121;51.910;8.406;2023-08-24T10:16:44;27.10;99.90
33815;DHT22;20121;51.910;8.406;2023-08-24T10:19:13;27.10;99.90
33815;DHT22;20121;51.910;8.406;2023-08-24T10:21:39;27.10;99.90
33815;DHT22;20121;51.910;8.406;2023-08-24T10:24:06;27.10;99.90
33815;DHT22;20121;51.910;8.406;2023-08-24T10:26:33;27.10;99.90
33815;DHT22;20121;51.910;8.406;2023-08-24T10:29:00;27.10;99.90
33815;DHT22;20121;51.910;8.406;2023-08-24T10:31:26;27.20;99.90
33815;DHT22;20121;51.910;8.406;2023-08-24T10:33:53;27.30;99.90
33815;DHT22;20121;51.910;8.406;2023-08-24T10:36:21;27.40;99.90
33815;DHT22;20121;51.910;8.406;2023-08-24T10:38:47;27.30;99.90
33815;DHT22;20121;51.910;8.406;2023-08-24T10:41:13;27.30;99.90
33815;DHT22;20121;51.910;8.406;2023-08-24T10:43:40;27.30;99.90
33815;DHT22;20121;51.910;8.406;2023-08-24T10:46:13;27.30;99.90
33815;DHT22;20121;51.910;8.406;2023-08-24T10:53:44;27.50;99.90
33815;DHT22;20121;51.910;8.406;2023-08-24T10:56:17;27.60;99.90
33815;DHT22;20121;51.910;8.406;2023-08-24T10:58:45;27.70;99.90
33815;DHT22;20121;51.910;8.406;2023-08-24T11:01:17;27.80;99.90
33815;DHT22;20121;51.910;8.406;2023-08-24T11:03:49;27.80;99.90
33815;DHT22;20121;51.910;8.406;2023-08-24T11:06:19;27.80;99.90
33815;DHT22;20121;51.910;8.406;2023-08-24T11:08:47;27.80;99.90
33815;DHT22;20121;51.910;8.406;2023-08-24T11:11:23;27.80;99.90
33815;DHT22;20121;51.910;8.406;2023-08-24T11:17:05;27.70;99.90
33815;DHT22;20121;51.910;8.406;2023-08-24T11:19:49;27.60;99.80
33815;DHT22;20121;51.910;8.406;2023-08-24T11:22:18;27.70;99.60
33815;DHT22;20121;51.910;8.406;2023-08-24T11:24:45;27.70;99.70
33815;DHT22;20121;51.910;8.406;2023-08-24T11:27:11;27.80;99.90
33815;DHT22;20121;51.910;8.406;2023-08-24T11:29:37;27.80;99.20
33815;DHT22;20121;51.910;8.406;2023-08-24T11:32:03;27.80;99.80
33815;DHT22;20121;51.910;8.406;2023-08-24T11:34:30;27.80;98.20
33815;DHT22;20121;51.910;8.406;2023-08-24T11:36:56;27.90;99.10
33815;DHT22;20121;51.910;8.406;2023-08-24T11:39:23;27.90;99.90
33815;DHT22;20121;51.910;8.406;2023-08-24T11:42:06;27.90;99.20
33815;DHT22;20121;51.910;8.406;2023-08-24T11:44:48;27.90;99.60
33815;DHT22;20121;51.910;8.406;2023-08-24T11:47:14;27.90;99.20
33815;DHT22;20121;51.910;8.406;2023-08-24T11:49:41;28.00;99.50
33815;DHT22;20121;51.910;8.406;2023-08-24T11:52:06;28.10;99.20
33815;DHT22;20121;51.910;8.406;2023-08-24T11:54:33;28.20;98.70
33815;DHT22;20121;51.910;8.406;2023-08-24T11:56:58;28.20;99.00
33815;DHT22;20121;51.910;8.406;2023-08-24T11:59:24;28.50;99.90
33815;DHT22;20121;51.910;8.406;2023-08-24T12:01:51;28.10;98.00
33815;DHT22;20121;51.910;8.406;2023-08-24T12:04:18;28.10;98.10
33815;DHT22;20121;51.910;8.406;2023-08-24T12:06:44;28.00;98.40
33815;DHT22;20121;51.910;8.406;2023-08-24T12:09:09;28.00;98.80
33815;DHT22;20121;51.910;8.406;2023-08-24T12:11:36;28.00;98.70
33815;DHT22;20121;51.910;8.406;2023-08-24T12:14:02;28.10;98.30
33815;DHT22;20121;51.910;8.406;2023-08-24T12:16:31;28.10;98.30
33815;DHT22;20121;51.910;8.406;2023-08-24T12:18:59;28.00;97.50
33815;DHT22;20121;51.910;8.406;2023-08-24T12:21:26;27.90;98.40
33815;DHT22;20121;51.910;8.406;2023-08-24T12:24:02;28.00;99.90
33815;DHT22;20121;51.910;8.406;2023-08-24T12:26:32;28.00;99.20
33815;DHT22;20121;51.910;8.406;2023-08-24T12:29:05;28.10;99.50
33815;DHT22;20121;51.910;8.406;2023-08-24T12:31:32;28.10;99.40
33815;DHT22;20121;51.910;8.406;2023-08-24T12:34:05;28.20;99.40
33815;DHT22;20121;51.910;8.406;2023-08-24T12:36:36;28.20;99.40
33815;DHT22;20121;51.910;8.406;2023-08-24T12:39:03;28.20;99.80
33815;DHT22;20121;51.910;8.406;2023-08-24T12:41:33;28.30;99.90
33815;DHT22;20121;51.910;8.406;2023-08-24T12:43:59;28.30;99.10
33815;DHT22;20121;51.910;8.406;2023-08-24T12:46:25;28.30;99.50
33815;DHT22;20121;51.910;8.406;2023-08-24T12:48:50;28.30;99.90
33815;DHT22;20121;51.910;8.406;2023-08-24T12:51:16;28.30;99.40
33815;DHT22;20121;51.910;8.406;2023-08-24T12:53:43;29.20;99.90
33815;DHT22;20121;51.910;8.406;2023-08-24T12:56:08;28.30;99.90
33815;DHT22;20121;51.910;8.406;2023-08-24T12:58:34;28.30;99.90
33815;DHT22;20121;51.910;8.406;2023-08-24T13:01:01;28.40;99.90
33815;DHT22;20121;51.910;8.406;2023-08-24T13:03:28;28.30;99.90
33815;DHT22;20121;51.910;8.406;2023-08-24T13:05:54;28.50;99.80
33815;DHT22;20121;51.910;8.406;2023-08-24T13:08:20;28.40;99.90
33815;DHT22;20121;51.910;8.406;2023-08-24T13:10:45;28.50;99.90
33815;DHT22;20121;51.910;8.406;2023-08-24T13:13:11;28.60;99.90
33815;DHT22;20121;51.910;8.406;2023-08-24T13:15:38;28.60;99.90
33815;DHT22;20121;51.910;8.406;2023-08-24T13:18:04;28.60;99.90
33815;DHT22;20121;51.910;8.406;2023-08-24T13:20:32;28.60;99.60
33815;DHT22;20121;51.910;8.406;2023-08-24T13:22:57;28.60;99.90
33815;DHT22;20121;51.910;8.406;2023-08-24T13:25:23;28.50;99.50
33815;DHT22;20121;51.910;8.406;2023-08-24T13:27:48;28.50;99.50
33815;DHT22;20121;51.910;8.406;2023-08-24T13:30:14;28.60;99.90
33815;DHT22;20121;51.910;8.406;2023-08-24T13:32:40;28.50;99.70
33815;DHT22;20121;51.910;8.406;2023-08-24T13:35:06;28.60;99.70
33815;DHT22;20121;51.910;8.406;2023-08-24T13:37:31;28.60;99.10
33815;DHT22;20121;51.910;8.406;2023-08-24T13:39:58;28.60;98.90
33815;DHT22;20121;51.910;8.406;2023-08-24T13:42:24;28.50;98.60
33815;DHT22;20121;51.910;8.406;2023-08-24T13:44:50;28.50;99.90
33815;DHT22;20121;51.910;8.406;2023-08-24T13:47:16;28.40;98.30
33815;DHT22;20121;51.910;8.406;2023-08-24T13:49:41;28.40;98.20
33815;DHT22;20121;51.910;8.406;2023-08-24T13:52:07;28.30;98.20
33815;DHT22;20121;51.910;8.406;2023-08-24T13:54:34;28.30;98.80
33815;DHT22;20121;51.910;8.406;2023-08-24T13:57:00;28.30;99.30
33815;DHT22;20121;51.910;8.406;2023-08-24T13:59:26;28.30;99.30
33815;DHT22;20121;51.910;8.406;2023-08-24T14:01:52;28.30;99.00
33815;DHT22;20121;51.910;8.406;2023-08-24T14:04:18;28.30;99.70
33815;DHT22;20121;51.910;8.406;2023-08-24T14:06:43;28.20;99.80
33815;DHT22;20121;51.910;8.406;2023-08-24T14:09:09;28.20;99.90
33815;DHT22;20121;51.910;8.406;2023-08-24T14:11:34;28.20;99.80
33815;DHT22;20121;51.910;8.406;2023-08-24T14:14:00;28.20;99.60
33815;DHT22;20121;51.910;8.406;2023-08-24T14:16:26;28.20;99.80
33815;DHT22;20121;51.910;8.406;2023-08-24T14:18:52;28.20;99.60
33815;DHT22;20121;51.910;8.406;2023-08-24T14:21:18;28.20;99.90
33815;DHT22;20121;51.910;8.406;2023-08-24T14:23:46;28.00;99.90
33815;DHT22;20121;51.910;8.406;2023-08-24T14:26:12;27.90;99.90
33815;DHT22;20121;51.910;8.406;2023-08-24T14:31:14;28.00;99.90
33815;DHT22;20121;51.910;8.406;2023-08-24T14:33:39;28.20;99.90
33815;DHT22;20121;51.910;8.406;2023-08-24T14:36:05;28.00;99.90
33815;DHT22;20121;51.910;8.406;2023-08-24T14:38:30;28.00;99.90
33815;DHT22;20121;51.910;8.406;2023-08-24T14:40:56;27.90;99.90
33815;DHT22;20121;51.910;8.406;2023-08-24T14:43:22;27.90;99.90
33815;DHT22;20121;51.910;8.406;2023-08-24T14:45:47;27.80;99.90
33815;DHT22;20121;51.910;8.406;2023-08-24T14:48:13;27.80;99.90
33815;DHT22;20121;51.910;8.406;2023-08-24T14:50:39;27.70;99.90
33815;DHT22;20121;51.910;8.406;2023-08-24T14:53:05;27.60;99.90
33815;DHT22;20121;51.910;8.406;2023-08-24T14:55:31;27.40;99.90
33815;DHT22;20121;51.910;8.406;2023-08-24T14:57:57;27.50;99.90
33815;DHT22;20121;51.910;8.406;2023-08-24T15:00:24;27.40;99.90
33815;DHT22;20121;51.910;8.406;2023-08-24T15:02:50;27.40;99.90
33815;DHT22;20121;51.910;8.406;2023-08-24T15:05:16;27.30;99.90
33815;DHT22;20121;51.910;8.406;2023-08-24T15:07:41;27.20;99.90
33815;DHT22;20121;51.910;8.406;2023-08-24T15:10:07;27.20;99.90
33815;DHT22;20121;51.910;8.406;2023-08-24T15:12:33;27.20;99.90
33815;DHT22;20121;51.910;8.406;2023-08-24T15:15:00;27.20;99.90
33815;DHT22;20121;51.910;8.406;2023-08-24T15:17:28;27.20;99.90
33815;DHT22;20121;51.910;8.406;2023-08-24T15:19:54;27.20;99.90
33815;DHT22;20121;51.910;8.406;2023-08-24T15:22:20;27.10;99.90
33815;DHT22;20121;51.910;8.406;2023-08-24T15:24:46;27.10;99.90
33815;DHT22;20121;51.910;8.406;2023-08-24T15:27:12;27.10;99.90
33815;DHT22;20121;51.910;8.406;2023-08-24T15:29:37;27.10;99.90
33815;DHT22;20121;51.910;8.406;2023-08-24T15:32:03;27.10;99.90
33815;DHT22;20121;51.910;8.406;2023-08-24T15:34:29;27.10;99.90
33815;DHT22;20121;51.910;8.406;2023-08-24T15:36:54;27.10;99.90
33815;DHT22;20121;51.910;8.406;2023-08-24T15:39:20;27.00;99.90
33815;DHT22;20121;51.910;8.406;2023-08-24T15:41:45;27.00;99.90
33815;DHT22;20121;51.910;8.406;2023-08-24T15:44:11;27.00;99.90
33815;DHT22;20121;51.910;8.406;2023-08-24T15:46:38;26.90;99.90
33815;DHT22;20121;51.910;8.406;2023-08-24T15:49:04;26.90;99.90
33815;DHT22;20121;51.910;8.406;2023-08-24T15:51:30;26.90;99.90